首页
METAR-TAF:

METAR-TAF

机场 :

羅馬-菲烏米奇諾機場

罗马菲乌米奇诺, 意大利

纬度: 41-48N, 经度: 012-14E, 海拔: 2米

当前天气观测

该预报发布于28分钟前的06:50 UTC
风速6节,风向
温度 17°C
湿度 94%
气压 1017 hPa
能见度10公里或以上
1500米以下无云,无积雨云

METAR: LIRF 150650Z 08006KT CAVOK 17/16 Q1017 NOSIG

时间: 09:18 (07:18 UTC)

预报

该预报发布于2小时和18分钟前的05:00 UTC
预报有效从15日的 06点(UTC)到 16日的 12点(UTC)
风速12节,风向南转南东
能見度: 8000
散云层高于2000英尺
多云层高于5000英尺
短暂存在
从 15日的 08点(UTC)到 15日的 12点(UTC)
能見度: 4000
短暂存在
从 15日的 12点(UTC)到 15日的 21点(UTC)
能見度: 3000
雷暴, 雨

TAF: LIRF 150500Z 1506/1612 16012KT 8000 SCT020 BKN050 TEMPO 1508/1512 4000 RA TEMPO 1512/1521 3000 TSRA

超过4000个机场的气象观测和天气预报(METAR&TAF报告)。

可查询的气象台以黄色和红色小点在地图上表示。

将鼠标移到小点上方,可查看气象台名称。

然后点击查看天气观测和预报。

如需切换地图:点击带黑十字的绿色按钮放大地图;点击带横线的绿色按钮缩小地图;或者点击绿色箭头查看邻近地区的地图。


METAR-TAF: